createdAt,value
2023-02-25T00:01:54.556Z,3.37
2023-02-25T00:04:09.270Z,3.38
2023-02-25T00:06:14.559Z,3.37
2023-02-25T00:08:20.039Z,3.32
2023-02-25T00:10:25.724Z,3.33
2023-02-25T00:12:31.254Z,3.35
2023-02-25T00:14:36.989Z,3.38
2023-02-25T00:16:42.871Z,3.33
2023-02-25T00:18:48.909Z,3.36
2023-02-25T00:20:54.166Z,3.36
2023-02-25T00:22:59.624Z,3.36
2023-02-25T00:25:05.228Z,3.36
2023-02-25T00:27:11.011Z,3.39
2023-02-25T00:29:16.986Z,3.38
2023-02-25T00:31:22.574Z,3.43
2023-02-25T00:33:29.610Z,3.46
2023-02-25T00:35:34.737Z,3.49
2023-02-25T00:37:40.129Z,3.56
2023-02-25T00:39:45.958Z,3.6
2023-02-25T00:41:51.427Z,3.63
2023-02-25T00:43:57.051Z,3.62
2023-02-25T00:46:03.293Z,3.62
2023-02-25T00:48:08.860Z,3.65
2023-02-25T00:50:14.113Z,3.65
2023-02-25T00:52:19.408Z,3.63
2023-02-25T00:54:24.521Z,3.65
2023-02-25T00:56:29.908Z,3.64
2023-02-25T00:58:35.319Z,3.58
2023-02-25T01:00:51.218Z,3.56
2023-02-25T01:02:57.144Z,3.58
2023-02-25T01:05:02.840Z,3.6
2023-02-25T01:07:08.873Z,3.62
2023-02-25T01:09:14.413Z,3.53
2023-02-25T01:11:19.892Z,3.49
2023-02-25T01:13:25.414Z,3.52
2023-02-25T01:15:30.733Z,3.48
2023-02-25T01:17:36.298Z,3.48
2023-02-25T01:19:41.726Z,3.43
2023-02-25T01:21:46.955Z,3.45
2023-02-25T01:23:52.085Z,3.41
2023-02-25T01:25:57.353Z,3.35
2023-02-25T01:28:02.659Z,3.23
2023-02-25T01:30:07.978Z,3.2
2023-02-25T01:32:16.252Z,3.18
2023-02-25T01:34:22.382Z,3.2
2023-02-25T01:36:29.800Z,3.18
2023-02-25T01:38:35.213Z,3.19
2023-02-25T01:40:40.602Z,3.18
2023-02-25T01:42:45.699Z,3.18
2023-02-25T01:44:51.542Z,3.21
2023-02-25T01:46:56.893Z,3.14
2023-02-25T01:49:02.806Z,3.12
2023-02-25T01:51:07.897Z,3.12
2023-02-25T01:53:13.181Z,3.13
2023-02-25T01:55:18.650Z,3.11
2023-02-25T01:57:23.916Z,3.07
2023-02-25T01:59:28.999Z,3.04
2023-02-25T02:01:34.439Z,3.04
2023-02-25T02:03:39.931Z,3.04
2023-02-25T02:05:47.916Z,3.02
2023-02-25T02:07:53.154Z,3
2023-02-25T02:09:58.466Z,2.98
2023-02-25T02:12:03.868Z,2.95
2023-02-25T02:14:09.220Z,2.9
2023-02-25T02:16:14.741Z,2.89
2023-02-25T02:18:20.433Z,2.88
2023-02-25T02:20:25.898Z,2.86
2023-02-25T02:22:31.129Z,2.82
2023-02-25T02:24:36.509Z,2.85
2023-02-25T02:26:42.184Z,2.85
2023-02-25T02:28:47.612Z,2.84
2023-02-25T02:30:53.059Z,2.85
2023-02-25T02:32:59.070Z,2.85
2023-02-25T02:35:04.647Z,2.82
2023-02-25T02:37:09.859Z,2.83
2023-02-25T02:39:14.973Z,2.82
2023-02-25T02:41:20.505Z,2.81
2023-02-25T02:43:26.117Z,2.81
2023-02-25T02:45:31.445Z,2.81
2023-02-25T02:47:36.759Z,2.77
2023-02-25T02:49:42.221Z,2.81
2023-02-25T02:51:47.609Z,2.8
2023-02-25T02:53:53.102Z,2.75
2023-02-25T02:55:58.763Z,2.7
2023-02-25T02:58:04.048Z,2.69
2023-02-25T03:00:09.468Z,2.69
2023-02-25T03:02:15.147Z,2.67
2023-02-25T03:04:20.356Z,2.67
2023-02-25T03:06:25.956Z,2.67
2023-02-25T03:08:31.420Z,2.66
2023-02-25T03:10:36.767Z,2.69
2023-02-25T03:12:42.095Z,2.72
2023-02-25T03:14:47.660Z,2.72
2023-02-25T03:16:53.044Z,2.73
2023-02-25T03:18:58.903Z,2.7
2023-02-25T03:21:03.995Z,2.69
2023-02-25T03:23:09.585Z,2.71
2023-02-25T03:25:14.949Z,2.68
2023-02-25T03:27:20.269Z,2.66
2023-02-25T03:29:25.424Z,2.68
2023-02-25T03:31:30.836Z,2.67
2023-02-25T03:33:36.288Z,2.7
2023-02-25T03:35:42.492Z,2.71
2023-02-25T03:37:47.707Z,2.71
2023-02-25T03:39:53.077Z,2.71
2023-02-25T03:41:58.348Z,2.7
2023-02-25T03:44:03.372Z,2.73
2023-02-25T03:46:08.695Z,2.73
2023-02-25T03:48:14.419Z,2.76
2023-02-25T03:50:19.966Z,2.75
2023-02-25T03:52:25.366Z,2.79
2023-02-25T03:54:30.770Z,2.82
2023-02-25T03:56:36.693Z,2.83
2023-02-25T03:58:41.910Z,2.86
2023-02-25T04:00:47.081Z,2.85
2023-02-25T04:02:52.737Z,2.85
2023-02-25T04:04:58.193Z,2.85
2023-02-25T04:07:04.156Z,2.82
2023-02-25T04:09:09.887Z,2.87
2023-02-25T04:11:14.994Z,2.89
2023-02-25T04:13:20.217Z,2.89
2023-02-25T04:15:25.470Z,2.83
2023-02-25T04:17:30.987Z,2.87
2023-02-25T04:19:36.435Z,2.83
2023-02-25T04:21:41.745Z,2.86
2023-02-25T04:23:46.944Z,2.81
2023-02-25T04:25:52.126Z,2.78
2023-02-25T04:27:57.395Z,2.76
2023-02-25T04:30:02.792Z,2.56
2023-02-25T04:32:08.472Z,2.47
2023-02-25T04:34:14.380Z,2.36
2023-02-25T04:36:19.689Z,2.31
2023-02-25T04:38:25.962Z,2.24
2023-02-25T04:40:31.447Z,2.14
2023-02-25T04:42:36.781Z,2.1
2023-02-25T04:44:42.038Z,2.05
2023-02-25T04:46:47.700Z,2.03
2023-02-25T04:48:53.466Z,2.01
2023-02-25T04:50:58.698Z,2
2023-02-25T04:53:03.795Z,1.96
2023-02-25T04:55:09.121Z,1.93
2023-02-25T04:57:14.272Z,1.92
2023-02-25T04:59:19.573Z,1.91
2023-02-25T05:01:24.796Z,1.89
2023-02-25T05:03:30.296Z,1.88
2023-02-25T05:05:35.496Z,1.9
2023-02-25T05:07:40.835Z,1.85
2023-02-25T05:09:45.969Z,1.84
2023-02-25T05:11:51.225Z,1.81
2023-02-25T05:13:56.803Z,1.86
2023-02-25T05:16:02.151Z,1.86
2023-02-25T05:18:07.948Z,1.87
2023-02-25T05:20:13.630Z,1.85
2023-02-25T05:22:19.476Z,1.84
2023-02-25T05:24:24.738Z,1.83
2023-02-25T05:26:30.102Z,1.84
2023-02-25T05:28:35.348Z,1.83
2023-02-25T05:30:40.553Z,1.82
2023-02-25T05:32:46.425Z,1.82
2023-02-25T05:34:52.552Z,1.83
2023-02-25T05:36:57.820Z,1.85
2023-02-25T05:39:03.145Z,1.83
2023-02-25T05:41:08.664Z,1.83
2023-02-25T05:43:13.975Z,1.82
2023-02-25T05:45:19.247Z,1.86
2023-02-25T05:47:24.576Z,1.86
2023-02-25T05:49:30.726Z,1.84
2023-02-25T05:51:36.156Z,1.84
2023-02-25T05:53:41.434Z,1.86
2023-02-25T05:55:46.710Z,1.86
2023-02-25T05:57:52.139Z,1.85
2023-02-25T06:00:00.774Z,1.84
2023-02-25T06:02:06.103Z,1.81
2023-02-25T06:04:12.124Z,1.79
2023-02-25T06:06:21.331Z,1.79
2023-02-25T06:08:28.438Z,1.85
2023-02-25T06:10:34.384Z,1.87
2023-02-25T06:12:40.095Z,1.88
2023-02-25T06:14:48.601Z,1.9
2023-02-25T06:16:57.183Z,1.89
2023-02-25T06:19:03.475Z,1.9
2023-02-25T06:21:08.732Z,1.95
2023-02-25T06:23:14.054Z,1.97
2023-02-25T06:25:19.523Z,2.02
2023-02-25T06:27:25.168Z,2.06
2023-02-25T06:29:30.903Z,2.04
2023-02-25T06:31:36.827Z,2.05
2023-02-25T06:33:42.592Z,2.08
2023-02-25T06:35:47.926Z,2.02
2023-02-25T06:37:53.815Z,2.11
2023-02-25T06:39:59.136Z,2.14
2023-02-25T06:42:04.619Z,2.16
2023-02-25T06:44:09.956Z,2.24
2023-02-25T06:46:18.072Z,2.29
2023-02-25T06:48:24.868Z,2.22
2023-02-25T06:50:30.586Z,2.19
2023-02-25T06:52:36.172Z,2.21
2023-02-25T06:54:41.463Z,2.27
2023-02-25T06:56:46.870Z,2.33
2023-02-25T06:58:55.365Z,2.37
2023-02-25T07:01:00.570Z,2.48
2023-02-25T07:03:06.125Z,2.5
2023-02-25T07:05:12.228Z,2.49
2023-02-25T07:07:18.137Z,2.62
2023-02-25T07:09:24.499Z,2.66
2023-02-25T07:11:30.843Z,2.68
2023-02-25T07:13:37.046Z,2.73
2023-02-25T07:15:42.769Z,2.71
2023-02-25T07:17:48.709Z,2.76
2023-02-25T07:19:55.232Z,2.88
2023-02-25T07:22:01.396Z,2.89
2023-02-25T07:24:07.558Z,2.92
2023-02-25T07:26:13.464Z,2.78
2023-02-25T07:28:19.512Z,2.81
2023-02-25T07:30:25.947Z,2.81
2023-02-25T07:32:32.229Z,2.95
2023-02-25T07:34:38.499Z,2.84
2023-02-25T07:36:44.388Z,2.79
2023-02-25T07:38:50.620Z,2.86
2023-02-25T07:40:56.919Z,2.93
2023-02-25T07:43:03.370Z,2.85
2023-02-25T07:45:10.046Z,2.97
2023-02-25T07:47:16.648Z,3.04
2023-02-25T07:49:22.738Z,3.15
2023-02-25T07:51:29.535Z,3.16
2023-02-25T07:53:35.900Z,3.15
2023-02-25T07:55:42.073Z,3.13
2023-02-25T07:57:48.823Z,2.96
2023-02-25T07:59:55.461Z,2.92
2023-02-25T08:02:01.720Z,2.85
2023-02-25T08:04:08.176Z,2.85
2023-02-25T08:06:14.826Z,2.99
2023-02-25T08:08:21.353Z,3.02
2023-02-25T08:10:28.951Z,2.99
2023-02-25T08:12:35.082Z,2.99
2023-02-25T08:14:41.227Z,3.08
2023-02-25T08:16:47.128Z,3.05
2023-02-25T08:18:53.878Z,3.19
2023-02-25T08:21:02.547Z,3.26
2023-02-25T08:23:10.296Z,3.35
2023-02-25T08:25:17.370Z,3.35
2023-02-25T08:27:23.804Z,3.42
2023-02-25T08:29:30.390Z,3.41
2023-02-25T08:31:37.379Z,3.56
2023-02-25T08:33:44.925Z,3.46
2023-02-25T08:35:52.312Z,3.5
2023-02-25T08:37:58.094Z,3.58
2023-02-25T08:40:04.346Z,3.77
2023-02-25T08:42:10.453Z,3.95
2023-02-25T08:44:17.209Z,3.8
2023-02-25T08:46:23.605Z,3.89
2023-02-25T08:48:31.627Z,3.91
2023-02-25T08:50:37.992Z,3.85
2023-02-25T08:52:44.037Z,3.76
2023-02-25T08:54:50.406Z,3.64
2023-02-25T08:56:56.423Z,3.63
2023-02-25T08:59:02.693Z,3.63
2023-02-25T09:01:09.174Z,3.45
2023-02-25T09:03:15.640Z,3.46
2023-02-25T09:05:21.885Z,3.37
2023-02-25T09:07:28.080Z,3.53
2023-02-25T09:09:34.961Z,3.82
2023-02-25T09:11:41.193Z,4.14
2023-02-25T09:13:47.316Z,4.72
2023-02-25T09:15:53.897Z,5.28
2023-02-25T09:17:59.980Z,5.91
2023-02-25T09:20:05.556Z,5.29
2023-02-25T09:22:13.301Z,5.58
2023-02-25T09:24:20.063Z,5.74
2023-02-25T09:26:28.751Z,5.67
2023-02-25T09:28:35.059Z,5.62
2023-02-25T09:30:41.646Z,5.4
2023-02-25T09:32:48.277Z,5.28
2023-02-25T09:34:55.451Z,5.15
2023-02-25T09:37:08.017Z,5
2023-02-25T09:39:13.915Z,5.09
2023-02-25T09:41:20.285Z,5.02
2023-02-25T09:43:28.022Z,4.77
2023-02-25T09:45:34.135Z,4.54
2023-02-25T09:47:40.745Z,4.6
2023-02-25T09:49:47.148Z,4.71
2023-02-25T09:51:53.567Z,4.6
2023-02-25T09:54:00.154Z,4.13
2023-02-25T09:56:06.868Z,3.7
2023-02-25T09:58:13.263Z,3.53
2023-02-25T10:00:19.314Z,3.37
2023-02-25T10:02:25.613Z,3.48
2023-02-25T10:04:32.997Z,3.78
2023-02-25T10:06:39.552Z,4.03
2023-02-25T10:08:49.048Z,4.23
2023-02-25T10:10:56.663Z,4.38
2023-02-25T10:13:03.114Z,4.24
2023-02-25T10:15:09.559Z,4.32
2023-02-25T10:17:15.893Z,4.06
2023-02-25T10:19:22.031Z,3.56
2023-02-25T10:21:29.483Z,3.06
2023-02-25T10:23:36.098Z,2.96
2023-02-25T10:25:43.180Z,3.03
2023-02-25T10:27:49.405Z,3.27
2023-02-25T10:29:57.441Z,3.37
2023-02-25T10:32:04.745Z,3.46
2023-02-25T10:34:12.649Z,3.54
2023-02-25T10:36:19.136Z,3.8
2023-02-25T10:38:25.454Z,3.78
2023-02-25T10:40:31.634Z,3.95
2023-02-25T10:42:40.654Z,4.02
2023-02-25T10:44:47.148Z,3.99
2023-02-25T10:46:53.579Z,3.97
2023-02-25T10:49:00.026Z,4.16
2023-02-25T10:51:06.685Z,4.33
2023-02-25T10:53:12.999Z,4.39
2023-02-25T10:55:19.182Z,4.68
2023-02-25T10:57:25.213Z,4.96
2023-02-25T10:59:32.514Z,4.69
2023-02-25T11:01:38.842Z,4.49
2023-02-25T11:03:45.601Z,3.91
2023-02-25T11:05:51.974Z,3.02
2023-02-25T11:07:58.275Z,2.72
2023-02-25T11:10:04.944Z,2.5
2023-02-25T11:12:11.869Z,2.26
2023-02-25T11:14:18.238Z,2.04
2023-02-25T11:16:24.796Z,1.86
2023-02-25T11:18:31.962Z,1.72
2023-02-25T11:20:39.326Z,1.68
2023-02-25T11:22:45.521Z,1.79
2023-02-25T11:24:52.912Z,1.94
2023-02-25T11:26:59.223Z,2.05
2023-02-25T11:29:06.246Z,2.26
2023-02-25T11:31:13.400Z,2.46
2023-02-25T11:33:21.755Z,2.42
2023-02-25T11:35:28.624Z,2.51
2023-02-25T11:37:35.020Z,2.47
2023-02-25T11:39:47.726Z,2.47
2023-02-25T11:41:54.355Z,2.46
2023-02-25T11:44:01.772Z,2.44
2023-02-25T11:46:10.102Z,2.36
2023-02-25T11:48:17.441Z,2.26
2023-02-25T11:50:23.970Z,2.25
2023-02-25T11:52:31.545Z,2.42
2023-02-25T11:54:38.200Z,2.7
2023-02-25T11:56:44.654Z,2.84
2023-02-25T11:58:50.976Z,3.05
2023-02-25T12:00:58.042Z,3.05
2023-02-25T12:03:04.624Z,2.99
2023-02-25T12:05:13.289Z,3.12
2023-02-25T12:07:19.726Z,3.3
2023-02-25T12:09:26.295Z,3.74
2023-02-25T12:11:32.685Z,3.84
2023-02-25T12:13:39.325Z,3.67
2023-02-25T12:15:46.307Z,3.92
2023-02-25T12:17:54.280Z,4.17
2023-02-25T12:20:02.025Z,4.04
2023-02-25T12:22:08.576Z,4.23
2023-02-25T12:24:15.660Z,4.22
2023-02-25T12:26:22.397Z,4.39
2023-02-25T12:28:28.969Z,4.26
2023-02-25T12:30:36.253Z,4.27
2023-02-25T12:32:43.336Z,4.3
2023-02-25T12:34:49.841Z,4.3
2023-02-25T12:36:58.318Z,4.16
2023-02-25T12:39:04.777Z,4.18
2023-02-25T12:41:12.107Z,4.29
2023-02-25T12:43:19.225Z,4.31
2023-02-25T12:45:26.376Z,4.37
2023-02-25T12:47:33.207Z,4.39
2023-02-25T12:49:39.964Z,4.2
2023-02-25T12:51:46.656Z,4.16
2023-02-25T12:53:53.212Z,4.17
2023-02-25T12:55:59.615Z,4.29
2023-02-25T12:58:05.847Z,4.39
2023-02-25T13:00:11.971Z,4.62
2023-02-25T13:02:17.968Z,4.68
2023-02-25T13:04:24.798Z,4.58
2023-02-25T13:06:30.947Z,4.62
2023-02-25T13:08:37.345Z,4.52
2023-02-25T13:10:44.336Z,4.52
2023-02-25T13:12:51.236Z,4.57
2023-02-25T13:14:57.976Z,4.77
2023-02-25T13:17:04.611Z,5.05
2023-02-25T13:19:10.946Z,5.15
2023-02-25T13:21:17.221Z,5.33
2023-02-25T13:23:23.875Z,5.65
2023-02-25T13:25:30.756Z,5.43
2023-02-25T13:27:37.890Z,5.68
2023-02-25T13:29:47.461Z,5.84
2023-02-25T13:31:55.193Z,5.69
2023-02-25T13:34:04.058Z,5.55
2023-02-25T13:36:10.681Z,5.54
2023-02-25T13:38:17.702Z,5.44
2023-02-25T13:40:28.107Z,5.33
2023-02-25T13:42:36.137Z,5.09
2023-02-25T13:44:42.767Z,5.04
2023-02-25T13:46:49.454Z,4.94
2023-02-25T13:48:55.848Z,4.9
2023-02-25T13:51:03.535Z,4.91
2023-02-25T13:53:10.664Z,4.92
2023-02-25T13:55:17.264Z,4.82
2023-02-25T13:57:24.364Z,4.62
2023-02-25T13:59:31.145Z,4.24
2023-02-25T14:01:38.925Z,3.7
2023-02-25T14:03:46.471Z,3.17
2023-02-25T14:05:52.474Z,2.91
2023-02-25T14:07:58.028Z,2.45
2023-02-25T14:10:04.235Z,2.14
2023-02-25T14:12:13.068Z,1.98
2023-02-25T14:14:22.429Z,2
2023-02-25T14:16:30.476Z,2.15
2023-02-25T14:18:38.148Z,2.35
2023-02-25T14:20:46.145Z,2.42
2023-02-25T14:22:53.262Z,2.46
2023-02-25T14:25:04.536Z,2.55
2023-02-25T14:27:11.147Z,2.68
2023-02-25T14:29:18.210Z,2.82
2023-02-25T14:31:26.566Z,2.86
2023-02-25T14:33:36.425Z,2.81
2023-02-25T14:35:46.304Z,2.78
2023-02-25T14:37:54.071Z,2.69
2023-02-25T14:40:02.675Z,2.81
2023-02-25T14:42:09.953Z,2.77
2023-02-25T14:44:18.226Z,2.88
2023-02-25T14:46:26.832Z,2.82
2023-02-25T14:48:34.008Z,2.88
2023-02-25T14:50:43.647Z,2.92
2023-02-25T14:52:50.444Z,2.97
2023-02-25T14:54:58.474Z,2.99
2023-02-25T14:57:06.628Z,2.96
2023-02-25T14:59:18.582Z,3.04
2023-02-25T15:01:27.192Z,3.02
2023-02-25T15:03:37.589Z,2.96
2023-02-25T15:05:47.784Z,2.91
2023-02-25T15:07:54.814Z,2.9
2023-02-25T15:10:01.317Z,2.95
2023-02-25T15:12:08.992Z,2.96
2023-02-25T15:14:16.462Z,2.86
2023-02-25T15:16:22.811Z,2.78
2023-02-25T15:18:29.980Z,2.76
2023-02-25T15:20:39.069Z,2.68
2023-02-25T15:22:48.413Z,2.66
2023-02-25T15:24:55.298Z,2.54
2023-02-25T15:27:04.333Z,2.5
2023-02-25T15:29:12.802Z,2.4
2023-02-25T15:31:20.942Z,2.38
2023-02-25T15:33:29.382Z,2.33
2023-02-25T15:35:38.344Z,2.32
2023-02-25T15:37:45.730Z,2.32
2023-02-25T15:39:56.422Z,2.33
2023-02-25T15:42:03.775Z,2.32
2023-02-25T15:44:13.308Z,2.34
2023-02-25T15:46:22.273Z,2.38
2023-02-25T15:48:31.399Z,2.4
2023-02-25T15:50:39.711Z,2.44
2023-02-25T15:52:51.575Z,2.46
2023-02-25T15:55:00.280Z,2.5
2023-02-25T15:57:09.803Z,2.47
2023-02-25T15:59:17.736Z,2.47
2023-02-25T16:01:26.015Z,2.45
2023-02-25T16:03:34.767Z,2.43
2023-02-25T16:05:50.342Z,2.47
2023-02-25T16:07:58.443Z,2.47
2023-02-25T16:10:04.918Z,2.48
2023-02-25T16:12:16.354Z,2.48
2023-02-25T16:14:25.384Z,2.47
2023-02-25T16:16:34.347Z,2.44
2023-02-25T16:18:45.624Z,2.4
2023-02-25T16:20:56.548Z,2.34
2023-02-25T16:23:06.692Z,2.27
2023-02-25T16:25:14.798Z,2.23
2023-02-25T16:27:23.042Z,2.2
2023-02-25T16:29:31.777Z,2.18
2023-02-25T16:31:39.731Z,2.15
2023-02-25T16:33:47.705Z,2.13
2023-02-25T16:36:07.304Z,2.09
2023-02-25T16:38:16.274Z,2.06
2023-02-25T16:40:25.084Z,2.08
2023-02-25T16:42:33.521Z,2.1
2023-02-25T16:44:46.512Z,2.14
2023-02-25T16:46:56.049Z,2.16
2023-02-25T16:49:09.175Z,2.15
2023-02-25T16:51:18.462Z,2.18
2023-02-25T16:53:30.042Z,2.21
2023-02-25T16:55:40.430Z,2.25
2023-02-25T16:57:49.551Z,2.28
2023-02-25T17:00:03.023Z,2.32
2023-02-25T17:02:16.913Z,2.32
2023-02-25T17:04:24.958Z,2.34
2023-02-25T17:06:32.968Z,2.37
2023-02-25T17:08:40.969Z,2.37
2023-02-25T17:10:49.834Z,2.4
2023-02-25T17:12:57.398Z,2.42
2023-02-25T17:15:12.477Z,2.42
2023-02-25T17:17:21.130Z,2.45
2023-02-25T17:19:31.479Z,2.46
2023-02-25T17:21:40.791Z,2.47
2023-02-25T17:23:53.006Z,2.47
2023-02-25T17:26:05.230Z,2.5
2023-02-25T17:28:14.817Z,2.52
2023-02-25T17:30:27.252Z,2.48
2023-02-25T17:32:35.841Z,2.5
2023-02-25T17:34:45.757Z,2.49
2023-02-25T17:36:58.170Z,2.5
2023-02-25T17:39:08.662Z,2.47
2023-02-25T17:41:18.087Z,2.49
2023-02-25T17:43:34.615Z,2.49
2023-02-25T17:45:43.094Z,2.49
2023-02-25T17:47:53.293Z,2.52
2023-02-25T17:50:03.588Z,2.53
2023-02-25T17:52:12.385Z,2.5
2023-02-25T17:54:20.314Z,2.52
2023-02-25T17:56:35.236Z,2.49
2023-02-25T17:58:45.571Z,2.52
2023-02-25T18:00:55.686Z,2.55
2023-02-25T18:03:04.591Z,2.57
2023-02-25T18:05:12.703Z,2.54
2023-02-25T18:07:26.515Z,2.57
2023-02-25T18:09:35.257Z,2.54
2023-02-25T18:11:45.627Z,2.51
2023-02-25T18:13:58.416Z,2.51
2023-02-25T18:16:12.982Z,2.47
2023-02-25T18:18:21.853Z,2.42
2023-02-25T18:20:32.835Z,2.46
2023-02-25T18:22:42.833Z,2.42
2023-02-25T18:24:53.321Z,2.4
2023-02-25T18:27:02.149Z,2.42
2023-02-25T18:29:10.077Z,2.4
2023-02-25T18:31:18.460Z,2.43
2023-02-25T18:33:28.192Z,2.4
2023-02-25T18:35:39.215Z,2.44
2023-02-25T18:37:49.136Z,2.47
2023-02-25T18:40:00.644Z,2.49
2023-02-25T18:42:11.622Z,2.47
2023-02-25T18:44:23.358Z,2.5
2023-02-25T18:46:34.780Z,2.49
2023-02-25T18:48:42.102Z,2.49
2023-02-25T18:50:50.971Z,2.49
2023-02-25T18:53:01.469Z,2.52
2023-02-25T18:55:11.320Z,2.5
2023-02-25T18:57:23.000Z,2.52
2023-02-25T18:59:32.613Z,2.54
2023-02-25T19:01:42.577Z,2.54
2023-02-25T19:03:52.223Z,2.59
2023-02-25T19:06:02.598Z,2.57
2023-02-25T19:08:11.799Z,2.59
2023-02-25T19:10:21.480Z,2.58
2023-02-25T19:12:31.230Z,2.56
2023-02-25T19:14:39.947Z,2.61
2023-02-25T19:17:02.366Z,2.6
2023-02-25T19:19:13.231Z,2.58
2023-02-25T19:21:24.281Z,2.54
2023-02-25T19:23:34.634Z,2.57
2023-02-25T19:25:45.534Z,2.55
2023-02-25T19:27:56.942Z,2.56
2023-02-25T19:30:08.883Z,2.57
2023-02-25T19:32:18.344Z,2.55
2023-02-25T19:34:27.645Z,2.58
2023-02-25T19:36:38.110Z,2.56
2023-02-25T19:38:58.499Z,2.52
2023-02-25T19:41:10.800Z,2.56
2023-02-25T19:43:19.401Z,2.51
2023-02-25T19:45:35.682Z,2.49
2023-02-25T19:47:46.394Z,2.47
2023-02-25T19:49:57.544Z,2.43
2023-02-25T19:52:06.340Z,2.38
2023-02-25T19:54:16.106Z,2.42
2023-02-25T19:56:26.967Z,2.35
2023-02-25T19:58:36.622Z,2.38
2023-02-25T20:00:47.425Z,2.4
2023-02-25T20:02:57.665Z,2.35
2023-02-25T20:05:07.709Z,2.32
2023-02-25T20:07:19.709Z,2.29
2023-02-25T20:09:30.276Z,2.28
2023-02-25T20:11:39.776Z,2.21
2023-02-25T20:13:49.653Z,2.22
2023-02-25T20:16:00.516Z,2.19
2023-02-25T20:18:12.025Z,2.21
2023-02-25T20:20:19.701Z,2.2
2023-02-25T20:22:28.772Z,2.2
2023-02-25T20:24:37.284Z,2.23
2023-02-25T20:26:48.598Z,2.22
2023-02-25T20:28:58.005Z,2.19
2023-02-25T20:31:09.290Z,2.21
2023-02-25T20:33:18.534Z,2.23
2023-02-25T20:35:30.418Z,2.26
2023-02-25T20:37:40.785Z,2.2
2023-02-25T20:39:50.263Z,2.24
2023-02-25T20:42:02.792Z,2.24
2023-02-25T20:44:17.932Z,2.19
2023-02-25T20:46:26.458Z,2.19
2023-02-25T20:48:36.037Z,2.16
2023-02-25T20:50:48.000Z,2.17
2023-02-25T20:52:59.564Z,2.15
2023-02-25T20:55:10.878Z,2.15
2023-02-25T20:57:22.347Z,2.14
2023-02-25T20:59:32.314Z,2.12
2023-02-25T21:01:41.626Z,2.09
2023-02-25T21:03:56.780Z,2.08
2023-02-25T21:06:07.100Z,2.07
2023-02-25T21:08:16.956Z,2
2023-02-25T21:10:25.817Z,1.99
2023-02-25T21:12:38.111Z,1.97
2023-02-25T21:14:47.462Z,1.94
2023-02-25T21:16:55.484Z,1.94
2023-02-25T21:19:04.653Z,1.94
2023-02-25T21:21:11.666Z,1.91
2023-02-25T21:23:21.517Z,1.89
2023-02-25T21:25:31.668Z,1.91
2023-02-25T21:27:41.186Z,1.9
2023-02-25T21:29:48.973Z,1.82
2023-02-25T21:31:56.512Z,1.83
2023-02-25T21:34:04.262Z,1.82
2023-02-25T21:36:12.063Z,1.79
2023-02-25T21:38:18.910Z,1.79
2023-02-25T21:40:26.218Z,1.75
2023-02-25T21:42:34.799Z,1.77
2023-02-25T21:44:42.133Z,1.74
2023-02-25T21:46:49.358Z,1.76
2023-02-25T21:48:58.987Z,1.77
2023-02-25T21:51:06.030Z,1.78
2023-02-25T21:53:14.218Z,1.77
2023-02-25T21:55:21.207Z,1.77
2023-02-25T21:57:27.357Z,1.7
2023-02-25T21:59:36.429Z,1.67
2023-02-25T22:01:42.775Z,1.67
2023-02-25T22:03:51.087Z,1.63
2023-02-25T22:05:57.656Z,1.61
2023-02-25T22:08:04.778Z,1.59
2023-02-25T22:10:12.234Z,1.59
2023-02-25T22:12:20.582Z,1.59
2023-02-25T22:14:28.045Z,1.58
2023-02-25T22:16:34.748Z,1.57
2023-02-25T22:18:41.851Z,1.57
2023-02-25T22:20:48.931Z,1.56
2023-02-25T22:22:55.276Z,1.55
2023-02-25T22:25:02.139Z,1.56
2023-02-25T22:27:11.891Z,1.54
2023-02-25T22:29:17.851Z,1.53
2023-02-25T22:31:23.803Z,1.52
2023-02-25T22:33:31.112Z,1.52
2023-02-25T22:35:37.530Z,1.54
2023-02-25T22:37:43.788Z,1.5
2023-02-25T22:39:49.150Z,1.5
2023-02-25T22:41:55.201Z,1.49
2023-02-25T22:44:00.629Z,1.46
2023-02-25T22:46:06.524Z,1.44
2023-02-25T22:48:12.928Z,1.45
2023-02-25T22:50:19.099Z,1.45
2023-02-25T22:52:24.856Z,1.4
2023-02-25T22:54:30.619Z,1.4
2023-02-25T22:56:37.554Z,1.39
2023-02-25T22:58:43.740Z,1.39
2023-02-25T23:00:49.722Z,1.38
2023-02-25T23:02:55.450Z,1.38
2023-02-25T23:05:02.081Z,1.36
2023-02-25T23:07:08.112Z,1.37
2023-02-25T23:09:13.476Z,1.4
2023-02-25T23:11:19.318Z,1.37
2023-02-25T23:13:27.694Z,1.38
2023-02-25T23:15:33.006Z,1.31
2023-02-25T23:17:38.958Z,1.31
2023-02-25T23:19:44.289Z,1.28
2023-02-25T23:21:49.762Z,1.29
2023-02-25T23:23:55.809Z,1.23
2023-02-25T23:26:02.344Z,1.15
2023-02-25T23:28:08.525Z,1.16
2023-02-25T23:30:14.035Z,1.08
2023-02-25T23:32:19.621Z,1.03
2023-02-25T23:34:25.533Z,1.04
2023-02-25T23:36:31.014Z,1.02
2023-02-25T23:38:36.541Z,0.98
2023-02-25T23:40:42.327Z,0.97
2023-02-25T23:42:47.740Z,0.95
2023-02-25T23:44:53.002Z,0.92
2023-02-25T23:46:58.949Z,0.91
2023-02-25T23:49:05.137Z,0.9
2023-02-25T23:51:11.048Z,0.86
2023-02-25T23:53:18.653Z,0.87
2023-02-25T23:55:24.137Z,0.81
2023-02-25T23:57:29.637Z,0.77
2023-02-25T23:59:34.914Z,0.75
